Terminal Aerodrome Forecast
Issued by NWS Raleigh/Durham, NC

Home | Current Version | Previous Version | Text Only | Print | Product List | Glossary On
Versions: 1 2 3 4 5 6 7 8 9 10 11 12 13 14 15 16 17 18 19
000
FTUS42 KRAH 300816 AAA
TAFFAY
TAF AMD
KFAY 300816Z 3008/0106 06004KT P6SM OVC010
      TEMPO 3008/3012 OVC006
     FM301800 06005KT P6SM BKN022 BKN050 OVC250
      TEMPO 3019/3023 SCT020 BKN050 BKN200=

USA.gov is the U.S. government's official web portal to all federal, state and local government web resources and services.